Time;durP1;ratioP1;P1;durP2;ratioP2;P2;SDS_P1;SDS_P2;PMS_P1;PMS_P2;Temp;Humidity;BMP_temperature;BMP_pressure;BME280_temperature;BME280_humidity;BME280_pressure;Samples;Min_cycle;Max_cycle;Signal;HPM_P1;HPM_P2
2023/01/13 00:00:20;;;;;;;;;0.00;0.00;;;;;12.10;81.96;100481.13;5049237;28;45496;-64
2023/01/13 00:02:45;;;;;;;;;0.00;0.00;;;;;12.11;82.38;100474.56;5010436;28;45541;-62
2023/01/13 00:05:11;;;;;;;;;1.00;0.75;;;;;11.86;82.94;100431.47;5050630;28;45757;-63
2023/01/13 00:07:39;;;;;;;;;0.00;0.00;;;;;12.05;83.11;100480.97;5049882;28;45589;-63
2023/01/13 00:10:07;;;;;;;;;0.00;0.00;;;;;12.03;83.62;100510.59;5032670;28;46409;-66
2023/01/13 00:12:33;;;;;;;;;0.00;0.00;;;;;12.00;83.50;100505.56;5032409;28;45801;-63
2023/01/13 00:14:59;;;;;;;;;0.00;0.00;;;;;11.98;83.52;100513.19;5031457;28;45414;-62
2023/01/13 00:17:24;;;;;;;;;0.00;0.00;;;;;11.83;81.80;100466.78;5050620;28;45543;-63
2023/01/13 00:19:50;;;;;;;;;0.00;0.00;;;;;11.87;81.70;100495.53;5032096;28;47680;-63
2023/01/13 00:22:15;;;;;;;;;0.50;0.00;;;;;11.71;81.88;100489.56;5015547;28;45809;-63
2023/01/13 00:24:41;;;;;;;;;0.00;0.00;;;;;11.71;81.23;100480.44;5050603;28;45893;-63
2023/01/13 00:27:07;;;;;;;;;0.00;0.00;;;;;11.74;81.17;100480.00;5015165;28;45443;-63
2023/01/13 00:29:33;;;;;;;;;0.00;0.00;;;;;11.72;79.17;100488.47;5032090;28;47091;-63
2023/01/13 00:31:58;;;;;;;;;0.00;0.00;;;;;11.69;79.45;100486.16;5049099;28;45552;-62
2023/01/13 00:34:24;;;;;;;;;0.00;0.00;;;;;11.72;79.32;100487.63;5048923;28;45547;-63
2023/01/13 00:36:49;;;;;;;;;0.00;0.00;;;;;11.71;78.68;100474.94;5032398;28;45667;-62
2023/01/13 00:39:15;;;;;;;;;0.00;0.00;;;;;11.71;78.42;100483.19;5064581;28;46697;-62
2023/01/13 00:44:24;;;;;;;;;0.00;0.00;;;;;11.62;78.18;100482.63;5049808;28;45534;-62
2023/01/13 00:46:50;;;;;;;;;0.00;0.00;;;;;11.57;76.88;100477.00;5032260;28;45733;-62
2023/01/13 00:49:16;;;;;;;;;0.00;0.00;;;;;11.58;77.43;100475.94;5031382;28;47116;-62
2023/01/13 00:51:41;;;;;;;;;0.00;0.00;;;;;11.53;76.89;100473.84;4997379;28;45474;-62
2023/01/13 00:54:07;;;;;;;;;0.00;0.00;;;;;11.55;77.17;100479.09;5033564;28;45446;-67
2023/01/13 00:56:32;;;;;;;;;0.00;0.00;;;;;11.59;77.36;100461.13;5054581;28;45381;-67
2023/01/13 00:58:58;;;;;;;;;0.00;0.00;;;;;11.56;76.61;100461.53;5056050;28;45994;-68
2023/01/13 01:01:24;;;;;;;;;0.80;0.00;;;;;11.56;76.01;100472.53;5072926;28;45724;-67
2023/01/13 01:03:50;;;;;;;;;0.75;0.00;;;;;11.48;75.36;100462.69;5039216;28;45602;-68
2023/01/13 01:06:18;;;;;;;;;0.00;0.00;;;;;11.48;76.47;100481.94;5031145;28;45391;-68
2023/01/13 01:08:43;;;;;;;;;0.00;0.00;;;;;11.53;75.92;100479.34;5043722;28;45813;-69
2023/01/13 01:11:11;;;;;;;;;0.00;0.00;;;;;11.53;75.14;100480.19;5038017;28;45418;-70
2023/01/13 01:13:36;;;;;;;;;0.00;0.00;;;;;11.44;75.05;100481.53;5073075;28;45393;-69
2023/01/13 01:16:06;;;;;;;;;0.00;0.00;;;;;11.41;74.87;100475.66;5073355;28;45579;-69
2023/01/13 01:18:37;;;;;;;;;0.00;0.00;;;;;11.45;76.24;100480.47;5072437;28;46537;-67
2023/01/13 01:21:02;;;;;;;;;0.80;0.00;;;;;11.24;75.98;100448.72;5055691;28;45356;-68
2023/01/13 01:23:28;;;;;;;;;0.00;0.00;;;;;11.47;75.75;100474.75;5039260;28;45303;-68
2023/01/13 01:25:58;;;;;;;;;0.00;0.00;;;;;11.46;75.71;100473.91;5057301;28;45185;-68
2023/01/13 01:28:24;;;;;;;;;0.00;0.00;;;;;11.49;75.36;100478.13;5054844;28;47632;-68
2023/01/13 01:30:50;;;;;;;;;0.00;0.00;;;;;11.42;74.49;100475.41;5055534;28;45318;-68
2023/01/13 01:33:15;;;;;;;;;0.00;0.00;;;;;11.46;74.80;100473.06;5072803;28;45351;-68
2023/01/13 01:35:41;;;;;;;;;1.00;0.50;;;;;11.38;73.67;100460.44;5038797;28;45608;-69
2023/01/13 01:38:07;;;;;;;;;0.00;0.00;;;;;11.44;74.37;100461.44;5039040;28;45661;-68
2023/01/13 01:40:32;;;;;;;;;0.75;0.00;;;;;11.43;74.76;100470.75;5056707;28;45419;-68
2023/01/13 01:45:42;;;;;;;;;0.00;0.00;;;;;11.41;74.13;100464.66;5051575;28;45287;-67
2023/01/13 01:48:07;;;;;;;;;0.25;0.00;;;;;11.42;73.00;100460.84;5055341;28;45798;-68
2023/01/13 01:50:33;;;;;;;;;3.75;1.00;;;;;11.37;73.45;100456.84;5055116;28;45398;-68
2023/01/13 01:53:04;;;;;;;;;3.50;1.25;;;;;11.36;73.81;100440.56;5038952;28;45512;-68
2023/01/13 01:55:31;;;;;;;;;0.00;0.00;;;;;11.18;72.62;100435.88;5056415;28;45409;-67
2023/01/13 01:58:19;;;;;;;;;0.00;0.00;;;;;10.98;73.38;100409.41;5038557;28;47037;-68
2023/01/13 02:00:45;;;;;;;;;1.20;0.20;;;;;11.18;72.78;100430.38;5055768;28;45396;-67
2023/01/13 02:03:10;;;;;;;;;0.00;0.00;;;;;11.35;72.92;100467.22;5055328;28;45428;-68
2023/01/13 02:05:37;;;;;;;;;0.00;0.00;;;;;11.30;72.03;100468.97;5032990;28;45577;-67
2023/01/13 02:08:03;;;;;;;;;1.00;1.00;;;;;11.19;72.81;100460.38;5055970;28;46868;-68
2023/01/13 02:10:29;;;;;;;;;1.60;0.00;;;;;11.27;72.33;100478.50;5069380;28;45476;-68
2023/01/13 02:12:58;;;;;;;;;1.00;0.00;;;;;11.15;72.68;100461.06;5085940;27;45318;-67
2023/01/13 02:15:32;;;;;;;;;0.00;0.00;;;;;11.25;72.44;100486.09;5055075;28;45558;-67
2023/01/13 02:18:11;;;;;;;;;0.60;0.60;;;;;11.15;71.91;100483.84;5087887;27;45644;-68
2023/01/13 02:21:07;;;;;;;;;0.00;0.00;;;;;11.15;72.98;100486.59;5086508;27;45522;-67
2023/01/13 02:26:48;;;;;;;;;0.00;0.00;;;;;11.13;73.28;100494.22;5056736;28;45358;-67
2023/01/13 02:32:24;;;;;;;;;0.00;0.00;;;;;11.02;72.96;100492.19;5056127;28;45526;-68
2023/01/13 02:35:22;;;;;;;;;0.40;0.00;;;;;10.98;72.68;100500.88;5087995;27;45438;-68
2023/01/13 02:37:47;;;;;;;;;0.00;0.00;;;;;10.95;73.22;100498.56;5055512;28;45345;-68
2023/01/13 02:40:39;;;;;;;;;0.00;0.00;;;;;10.97;73.88;100501.94;5055967;28;46048;-68
2023/01/13 02:46:30;;;;;;;;;0.00;0.00;;;;;10.91;73.91;100494.59;5035598;28;45631;-68
2023/01/13 02:48:58;;;;;;;;;0.00;0.00;;;;;10.95;74.12;100498.56;5001405;28;45383;-65
2023/01/13 02:51:24;;;;;;;;;1.40;1.40;;;;;10.94;73.44;100499.63;5017146;28;45829;-67
2023/01/13 02:53:54;;;;;;;;;2.80;1.00;;;;;10.90;73.92;100509.38;5035520;28;45328;-68
2023/01/13 02:56:19;;;;;;;;;1.00;0.00;;;;;10.90;74.17;100523.13;5017831;28;45389;-67
2023/01/13 02:58:45;;;;;;;;;0.00;0.00;;;;;10.85;73.54;100509.19;5017646;28;45502;-68
2023/01/13 03:01:10;;;;;;;;;1.25;0.00;;;;;10.68;72.96;100489.66;5000639;28;45969;-68
2023/01/13 03:03:36;;;;;;;;;2.00;0.00;;;;;10.64;73.91;100480.16;5034854;28;45379;-67
2023/01/13 03:06:12;;;;;;;;;0.00;0.00;;;;;10.86;73.46;100521.84;5008859;28;45927;-68
2023/01/13 03:08:45;;;;;;;;;1.40;0.00;;;;;10.73;73.06;100514.50;5017509;28;45506;-67
2023/01/13 03:11:11;;;;;;;;;0.40;0.40;;;;;10.82;73.69;100515.09;5017979;28;45756;-68
2023/01/13 03:13:55;;;;;;;;;1.20;1.20;;;;;10.91;73.23;100533.03;5000493;28;45443;-67
2023/01/13 03:16:39;;;;;;;;;2.00;1.00;;;;;10.89;72.76;100540.63;5017152;28;45422;-67
2023/01/13 03:19:41;;;;;;;;;1.00;0.00;;;;;10.53;73.08;100470.72;5018812;28;45285;-68
2023/01/13 03:23:08;;;;;;;;;2.00;0.80;;;;;10.89;71.73;100526.91;5000588;28;46855;-68
2023/01/13 03:25:45;;;;;;;;;1.00;0.00;;;;;10.91;72.70;100537.66;4969697;28;45602;-67
2023/01/13 03:28:24;;;;;;;;;1.80;0.20;;;;;10.89;72.54;100539.81;5017445;28;45832;-68
2023/01/13 03:30:56;;;;;;;;;1.00;0.00;;;;;10.95;71.97;100542.50;5000708;28;45589;-68
2023/01/13 03:33:29;;;;;;;;;0.20;0.20;;;;;10.77;71.92;100513.03;5000678;28;46443;-67
2023/01/13 03:35:58;;;;;;;;;1.00;0.00;;;;;10.94;71.38;100532.56;5000820;28;45527;-67
2023/01/13 03:38:35;;;;;;;;;0.20;0.20;;;;;10.95;72.51;100534.25;5017416;28;45358;-67
2023/01/13 03:41:06;;;;;;;;;0.40;0.40;;;;;10.90;70.93;100542.34;4981004;28;45619;-68
2023/01/13 03:46:46;;;;;;;;;0.00;0.00;;;;;10.96;71.55;100544.22;5000056;28;45451;-67
2023/01/13 03:49:13;;;;;;;;;1.00;1.00;;;;;10.98;71.68;100538.47;5014745;28;45374;-67
2023/01/13 03:51:39;;;;;;;;;0.60;0.00;;;;;10.96;71.54;100530.47;4980979;28;45499;-67
2023/01/13 03:54:07;;;;;;;;;1.75;1.00;;;;;11.01;71.64;100535.31;4980075;28;45407;-68
2023/01/13 03:56:45;;;;;;;;;2.00;1.00;;;;;10.92;71.13;100523.72;4997218;28;45383;-67
2023/01/13 03:59:13;;;;;;;;;1.00;1.00;;;;;10.96;71.32;100524.13;4980629;28;45379;-66
2023/01/13 04:02:07;;;;;;;;;0.00;0.00;;;;;10.96;70.91;100530.47;4997158;28;45654;-68
2023/01/13 04:05:04;;;;;;;;;0.60;0.00;;;;;10.95;71.12;100541.66;4996725;28;45450;-68
2023/01/13 04:07:46;;;;;;;;;0.00;0.00;;;;;10.91;71.32;100535.78;5008625;28;45450;-68
2023/01/13 04:10:15;;;;;;;;;0.80;0.00;;;;;10.89;71.61;100534.31;5014418;28;45367;-68
2023/01/13 04:13:01;;;;;;;;;0.60;0.60;;;;;10.88;70.51;100535.38;4964307;28;45394;-68
2023/01/13 04:15:37;;;;;;;;;0.00;0.00;;;;;10.88;71.31;100547.19;5014745;28;45304;-68
2023/01/13 04:18:17;;;;;;;;;0.20;0.00;;;;;10.91;71.35;100549.50;4997091;28;45845;-68
2023/01/13 04:20:43;;;;;;;;;2.00;0.20;;;;;10.92;71.06;100550.31;5014592;28;45394;-67
2023/01/13 04:23:09;;;;;;;;;0.40;0.40;;;;;10.76;70.42;100546.19;4996652;28;45525;-67
2023/01/13 04:25:34;;;;;;;;;0.25;0.00;;;;;10.69;70.50;100532.50;4996308;28;45452;-67
2023/01/13 04:28:00;;;;;;;;;0.00;0.00;;;;;10.85;70.38;100561.34;5014136;28;45387;-67
2023/01/13 04:30:26;;;;;;;;;1.00;0.00;;;;;10.82;70.03;100568.13;5016977;28;45161;-66
2023/01/13 04:32:51;;;;;;;;;0.25;0.00;;;;;10.65;70.61;100544.97;5000079;28;45331;-67
2023/01/13 04:35:17;;;;;;;;;0.00;0.00;;;;;10.78;70.14;100571.53;5017651;28;45753;-67
2023/01/13 04:37:42;;;;;;;;;0.00;0.00;;;;;10.82;69.81;100567.28;4999873;28;45381;-68
2023/01/13 04:40:08;;;;;;;;;1.00;1.00;;;;;10.76;69.38;100568.13;4985116;28;45430;-68
2023/01/13 04:42:34;;;;;;;;;0.20;0.20;;;;;10.78;69.83;100583.34;5037788;28;45276;-68
2023/01/13 04:44:59;;;;;;;;;0.25;0.25;;;;;10.79;70.04;100578.69;5029476;28;46067;-67
2023/01/13 04:47:25;;;;;;;;;0.00;0.00;;;;;10.79;69.93;100585.00;5039583;28;45393;-68
2023/01/13 04:49:50;;;;;;;;;0.00;0.00;;;;;10.73;69.36;100574.91;5057936;28;45906;-67
2023/01/13 04:52:16;;;;;;;;;0.00;0.00;;;;;10.74;68.90;100593.09;5057525;28;45350;-69
2023/01/13 04:54:41;;;;;;;;;2.00;0.00;;;;;10.75;68.86;100589.28;5057264;28;45654;-68
2023/01/13 04:57:07;;;;;;;;;1.00;0.00;;;;;10.68;68.13;100599.44;5030150;28;45940;-67
2023/01/13 04:59:32;;;;;;;;;0.25;0.25;;;;;10.64;68.55;100593.53;5012575;28;45464;-67
2023/01/13 05:01:58;;;;;;;;;2.00;0.00;;;;;10.67;68.40;100595.00;5037442;28;45662;-67
2023/01/13 05:04:23;;;;;;;;;0.75;0.75;;;;;10.57;67.74;100604.53;5018825;28;45484;-68
2023/01/13 05:06:49;;;;;;;;;1.75;0.25;;;;;10.58;68.14;100589.75;5002871;28;45383;-67
2023/01/13 05:09:14;;;;;;;;;2.00;0.00;;;;;10.58;68.24;100599.91;5036878;28;45429;-68
2023/01/13 05:17:09;;;;;;;;;0.80;0.00;;;;;10.49;68.31;100602.03;5036889;28;45807;-67
2023/01/13 05:19:35;;;;;;;;;1.50;0.50;;;;;10.43;68.37;100602.88;5002726;28;45928;-68
2023/01/13 05:27:29;;;;;;;;;0.40;0.40;;;;;10.23;68.89;100581.78;5021613;28;45308;-67
2023/01/13 05:29:55;;;;;;;;;0.00;0.00;;;;;10.39;69.23;100607.91;5036926;28;45361;-67
2023/01/13 05:32:21;;;;;;;;;2.75;0.25;;;;;10.40;68.64;100631.56;5018926;28;45552;-68
2023/01/13 05:34:46;;;;;;;;;0.75;0.75;;;;;10.41;68.10;100627.75;5001920;28;46575;-67
2023/01/13 05:37:12;;;;;;;;;1.00;1.00;;;;;10.39;68.98;100629.88;5018889;28;45337;-68
2023/01/13 05:45:06;;;;;;;;;1.00;0.00;;;;;10.28;68.37;100650.56;5069902;28;45369;-68
2023/01/13 05:47:32;;;;;;;;;2.00;1.00;;;;;10.29;67.91;100655.00;5038524;28;45320;-67
2023/01/13 05:49:58;;;;;;;;;2.50;0.50;;;;;10.26;68.03;100644.44;5056657;28;45282;-67
2023/01/13 05:52:23;;;;;;;;;1.50;1.00;;;;;10.30;67.54;100651.19;5056615;28;45607;-67
2023/01/13 05:54:49;;;;;;;;;3.25;0.50;;;;;10.22;67.87;100650.56;5056097;28;46293;-67
2023/01/13 05:57:15;;;;;;;;;2.00;1.60;;;;;10.17;67.89;100657.53;5056469;28;45451;-68
2023/01/13 05:59:41;;;;;;;;;0.00;0.00;;;;;10.13;67.86;100678.22;5048456;28;45433;-67
2023/01/13 06:02:06;;;;;;;;;2.50;0.50;;;;;10.12;68.15;100657.31;5054139;28;45381;-69
2023/01/13 06:04:32;;;;;;;;;1.50;1.00;;;;;10.15;67.96;100662.38;5069698;28;45421;-68
2023/01/13 06:06:57;;;;;;;;;1.00;1.00;;;;;10.16;68.28;100674.19;5071953;28;45350;-69
2023/01/13 06:09:23;;;;;;;;;0.00;0.00;;;;;10.14;68.14;100671.66;5071867;28;45463;-68
2023/01/13 06:11:48;;;;;;;;;0.00;0.00;;;;;10.13;67.41;100669.97;5056487;28;45495;-68
2023/01/13 06:14:14;;;;;;;;;0.50;0.50;;;;;10.00;67.78;100642.56;5056699;28;46102;-68
2023/01/13 06:16:39;;;;;;;;;1.25;0.25;;;;;10.20;67.60;100680.09;5056485;28;45326;-68
2023/01/13 06:19:11;;;;;;;;;2.50;0.75;;;;;10.19;67.84;100690.22;5056483;28;45238;-68
2023/01/13 06:21:40;;;;;;;;;1.60;1.00;;;;;10.17;67.41;100706.91;5056621;28;45295;-68
2023/01/13 06:24:06;;;;;;;;;0.80;0.80;;;;;9.97;67.19;100686.84;5056062;28;45516;-68
2023/01/13 06:26:41;;;;;;;;;1.00;1.00;;;;;10.11;67.88;100694.03;5054956;28;45433;-68
2023/01/13 06:29:08;;;;;;;;;1.80;1.00;;;;;10.13;67.89;100718.47;5071820;28;45465;-68
2023/01/13 06:31:35;;;;;;;;;2.00;0.20;;;;;10.14;67.81;100717.47;5056079;28;45354;-66
2023/01/13 06:34:03;;;;;;;;;2.80;2.80;;;;;10.15;67.46;100722.72;5054119;28;46204;-68
2023/01/13 06:36:31;;;;;;;;;5.80;2.40;;;;;10.01;67.66;100707.31;5071536;28;45342;-68
2023/01/13 06:38:57;;;;;;;;;2.40;1.60;;;;;10.04;67.61;100721.44;5055808;28;45362;-68
2023/01/13 06:44:07;;;;;;;;;2.00;1.00;;;;;10.15;67.05;100732.84;5022773;28;45835;-68
2023/01/13 06:46:33;;;;;;;;;1.00;1.00;;;;;10.10;67.13;100736.22;5037803;28;46047;-68
2023/01/13 06:48:59;;;;;;;;;1.20;0.80;;;;;9.71;67.31;100672.88;5055176;28;45205;-69
2023/01/13 06:51:25;;;;;;;;;0.00;0.00;;;;;10.06;66.85;100732.22;5037965;28;45310;-67
2023/01/13 06:53:50;;;;;;;;;9.00;2.00;;;;;10.10;66.82;100738.97;5054853;28;46550;-69
2023/01/13 06:56:16;;;;;;;;;2.00;2.00;;;;;10.06;66.80;100745.91;5070920;28;45392;-68
2023/01/13 06:58:41;;;;;;;;;6.50;2.00;;;;;10.03;67.18;100740.84;5055470;28;45437;-68
2023/01/13 07:01:07;;;;;;;;;2.00;1.00;;;;;10.04;66.75;100750.78;5037909;28;45486;-67
2023/01/13 07:03:32;;;;;;;;;0.50;0.00;;;;;10.01;67.08;100751.19;5053790;28;46548;-68
2023/01/13 07:05:58;;;;;;;;;1.75;1.00;;;;;10.06;66.67;100762.38;5020840;28;45452;-68
2023/01/13 07:08:24;;;;;;;;;0.20;0.20;;;;;10.04;66.78;100753.53;5054755;28;45609;-68
2023/01/13 07:10:50;;;;;;;;;0.75;0.25;;;;;10.08;66.85;100757.50;5004946;28;45319;-68
2023/01/13 07:16:01;;;;;;;;;1.00;0.20;;;;;10.11;66.11;100770.81;5037208;28;45456;-68
2023/01/13 07:18:30;;;;;;;;;0.80;0.80;;;;;9.92;66.67;100746.94;5020902;28;45322;-68
2023/01/13 07:20:57;;;;;;;;;1.20;0.40;;;;;10.01;67.04;100782.19;5055339;28;45354;-68
2023/01/13 07:23:23;;;;;;;;;2.60;1.00;;;;;9.67;66.67;100753.00;5036797;28;46669;-68
2023/01/13 07:25:49;;;;;;;;;1.00;1.00;;;;;9.92;67.50;100779.84;5055268;28;45499;-67
2023/01/13 07:28:15;;;;;;;;;3.00;2.60;;;;;9.88;67.77;100793.13;5036620;28;45387;-68
2023/01/13 07:30:40;;;;;;;;;2.00;1.00;;;;;9.87;67.42;100789.53;5037062;28;45503;-69
2023/01/13 07:33:05;;;;;;;;;0.50;0.50;;;;;9.80;67.31;100761.25;5054693;28;46209;-68
2023/01/13 07:35:31;;;;;;;;;0.00;0.00;;;;;9.68;68.50;100755.53;5054724;28;45354;-68
2023/01/13 07:37:56;;;;;;;;;2.50;1.00;;;;;9.89;67.82;100779.19;5055098;28;45402;-69
2023/01/13 07:40:22;;;;;;;;;3.50;2.25;;;;;9.96;68.11;100794.81;5020194;28;45348;-70
2023/01/13 07:45:31;;;;;;;;;1.20;1.00;;;;;9.96;67.88;100811.28;5054605;28;45486;-68
2023/01/13 07:47:57;;;;;;;;;3.00;1.00;;;;;9.94;68.25;100816.97;5055227;28;45344;-66
2023/01/13 07:50:22;;;;;;;;;1.50;0.00;;;;;9.57;67.82;100750.63;5054732;28;45430;-66
2023/01/13 07:52:49;;;;;;;;;0.75;0.75;;;;;9.90;68.38;100805.59;5036779;28;46381;-67
2023/01/13 07:55:15;;;;;;;;;2.60;1.20;;;;;9.87;68.03;100810.63;5054510;28;45393;-67
2023/01/13 07:57:40;;;;;;;;;2.50;1.25;;;;;9.92;68.31;100823.72;5070511;28;45651;-68
2023/01/13 08:00:07;;;;;;;;;2.25;1.00;;;;;9.65;68.01;100782.50;5054174;28;45453;-69
2023/01/13 08:02:32;;;;;;;;;2.00;2.00;;;;;9.95;68.66;100831.53;5037149;28;46986;-68
2023/01/13 08:04:58;;;;;;;;;2.75;1.00;;;;;9.83;68.23;100832.09;5054006;28;45354;-69
2023/01/13 08:07:23;;;;;;;;;0.25;0.25;;;;;9.80;68.07;100818.81;5071168;28;45395;-68
2023/01/13 08:09:49;;;;;;;;;4.50;1.25;;;;;9.98;68.74;100831.13;5055540;28;45485;-69
2023/01/13 08:15:08;;;;;;;;;0.00;0.00;;;;;10.08;67.87;100841.69;5055066;28;45429;-66
2023/01/13 08:17:35;;;;;;;;;1.20;0.80;;;;;10.03;67.96;100843.16;5070122;28;45392;-68
2023/01/13 08:20:01;;;;;;;;;2.00;2.00;;;;;10.07;67.87;100846.31;5053878;28;45426;-67
2023/01/13 08:22:26;;;;;;;;;2.25;1.00;;;;;10.01;68.04;100845.28;5054703;28;46355;-67
2023/01/13 08:24:52;;;;;;;;;2.50;1.75;;;;;9.96;68.13;100855.13;5068520;27;45910;-67
2023/01/13 08:27:19;;;;;;;;;2.00;2.00;;;;;9.94;68.40;100862.72;5004796;28;45796;-67
2023/01/13 08:29:44;;;;;;;;;5.20;1.00;;;;;9.93;68.62;100869.28;5054643;28;45411;-66
2023/01/13 08:32:10;;;;;;;;;2.50;1.00;;;;;9.92;68.38;100884.88;5054630;28;46394;-66
2023/01/13 08:34:35;;;;;;;;;2.00;2.00;;;;;9.95;69.19;100873.50;5054814;28;45564;-67
2023/01/13 08:37:01;;;;;;;;;2.50;2.00;;;;;9.87;68.97;100863.56;5036644;28;45473;-67
2023/01/13 08:39:27;;;;;;;;;1.00;1.00;;;;;10.00;68.99;100872.88;5070173;28;45595;-67
2023/01/13 08:41:55;;;;;;;;;1.00;1.00;;;;;9.53;67.69;100795.94;5063540;28;45679;-61
2023/01/13 08:44:28;;;;;;;;;2.00;1.00;;;;;9.94;68.37;100871.81;5026319;28;45548;-62
2023/01/13 08:46:54;;;;;;;;;0.40;0.40;;;;;9.96;68.36;100879.81;5031123;28;45497;-61
2023/01/13 08:49:20;;;;;;;;;2.75;2.50;;;;;9.78;68.54;100856.56;5047131;28;45584;-61
2023/01/13 08:51:45;;;;;;;;;3.00;1.00;;;;;9.92;68.53;100882.13;5044874;28;47387;-62
2023/01/13 08:54:11;;;;;;;;;6.75;3.25;;;;;9.92;69.01;100886.78;5049333;28;45495;-62
2023/01/13 08:56:37;;;;;;;;;7.00;3.50;;;;;9.91;69.36;100885.91;5024077;28;45596;-62
2023/01/13 08:59:03;;;;;;;;;6.60;4.20;;;;;9.73;68.52;100868.13;5043228;28;45587;-64
2023/01/13 09:01:29;;;;;;;;;1.00;1.00;;;;;9.76;68.33;100888.78;5048235;28;45606;-63
2023/01/13 09:03:54;;;;;;;;;2.00;1.75;;;;;9.80;68.07;100879.13;5043419;28;46534;-63
2023/01/13 09:06:20;;;;;;;;;1.25;1.00;;;;;9.84;68.93;100885.91;5049864;28;45374;-63
2023/01/13 09:08:46;;;;;;;;;2.75;2.00;;;;;9.79;68.05;100904.00;5044858;28;46047;-63
2023/01/13 09:14:03;;;;;;;;;1.20;0.20;;;;;9.81;69.07;100897.25;5048725;28;45400;-62
2023/01/13 09:16:28;;;;;;;;;2.50;1.25;;;;;9.86;68.81;100905.72;5049530;28;45944;-62
2023/01/13 09:18:54;;;;;;;;;2.00;2.00;;;;;9.89;68.47;100907.22;5052977;28;45378;-61
2023/01/13 09:21:21;;;;;;;;;3.00;2.00;;;;;9.86;68.10;100908.47;5052649;28;46330;-62
2023/01/13 09:23:47;;;;;;;;;2.80;1.00;;;;;10.01;68.71;100905.59;5050232;28;45357;-61
2023/01/13 09:26:14;;;;;;;;;1.25;0.75;;;;;10.07;67.89;100901.19;5033739;28;45973;-62
2023/01/13 09:28:40;;;;;;;;;2.60;1.60;;;;;10.12;67.64;100904.16;5066436;28;45555;-61
2023/01/13 09:31:05;;;;;;;;;5.75;3.00;;;;;10.03;67.36;100908.97;5050693;28;46409;-63
2023/01/13 09:36:14;;;;;;;;;1.00;1.00;;;;;10.03;67.78;100916.34;5047836;28;45846;-63
2023/01/13 09:38:40;;;;;;;;;3.00;1.50;;;;;10.02;67.43;100900.94;5051194;28;45579;-65
2023/01/13 09:43:52;;;;;;;;;0.00;0.00;;;;;10.03;67.50;100917.19;5054714;28;45836;-66
2023/01/13 09:43:54;;;;;;;;;0.80;0.60;;;;;10.13;67.03;100932.41;5081593;27;45602;-64
2023/01/13 09:46:45;;;;;;;;;2.40;0.00;;;;;10.16;66.50;100926.53;5055121;28;45344;-63
2023/01/13 09:49:20;;;;;;;;;4.00;2.00;;;;;10.25;64.95;100940.94;5047394;27;45626;-66
2023/01/13 09:51:54;;;;;;;;;3.00;0.40;;;;;10.26;65.81;100937.13;5055206;28;45663;-66
2023/01/13 09:54:19;;;;;;;;;1.00;1.00;;;;;10.12;65.12;100915.13;5019799;28;45498;-66
2023/01/13 09:56:45;;;;;;;;;3.00;1.00;;;;;10.31;64.92;100934.63;5045726;28;45315;-65
2023/01/13 09:59:10;;;;;;;;;1.50;1.00;;;;;10.20;65.36;100922.34;5053172;28;45588;-65
2023/01/13 10:01:48;;;;;;;;;2.00;1.00;;;;;10.46;64.91;100950.09;5070735;28;45565;-66
2023/01/13 10:04:14;;;;;;;;;1.80;1.00;;;;;10.51;64.20;100950.34;5053060;28;45306;-64
2023/01/13 10:06:41;;;;;;;;;1.75;1.75;;;;;10.55;64.00;100948.84;5019251;28;45338;-65
2023/01/13 10:09:16;;;;;;;;;0.00;0.00;;;;;10.58;63.68;100942.97;5053967;28;45415;-65
2023/01/13 10:14:53;;;;;;;;;3.20;1.80;;;;;10.60;64.17;100953.72;5019318;28;45386;-64
2023/01/13 10:17:32;;;;;;;;;1.20;0.20;;;;;10.54;64.02;100949.91;5027001;28;45670;-63
2023/01/13 10:20:02;;;;;;;;;1.00;1.00;;;;;10.35;63.69;100943.28;5003543;28;45580;-64
2023/01/13 10:22:53;;;;;;;;;4.00;2.00;;;;;10.48;63.80;100973.53;5052831;28;46457;-63
2023/01/13 10:25:34;;;;;;;;;3.40;2.00;;;;;10.51;63.47;100980.53;5031370;28;45458;-63
2023/01/13 10:28:14;;;;;;;;;2.00;0.00;;;;;10.46;64.37;100969.31;5051505;28;45887;-62
2023/01/13 10:30:41;;;;;;;;;1.60;0.20;;;;;10.42;64.20;100966.97;5037432;28;45497;-64
2023/01/13 10:33:10;;;;;;;;;3.00;1.00;;;;;10.34;64.56;100949.81;5053836;28;46581;-62
2023/01/13 10:35:52;;;;;;;;;1.20;1.20;;;;;10.50;64.22;100971.44;5031977;28;45515;-61
2023/01/13 10:38:50;;;;;;;;;1.80;1.80;;;;;10.54;64.56;100978.22;5039714;28;45787;-62
2023/01/13 10:41:18;;;;;;;;;1.20;1.20;;;;;10.57;64.15;100971.47;5024921;28;45323;-61
2023/01/13 10:43:44;;;;;;;;;1.60;1.60;;;;;10.42;63.63;100955.97;5034363;28;47612;-62
2023/01/13 10:46:16;;;;;;;;;1.00;0.20;;;;;10.71;64.54;100995.16;5047512;28;45536;-62
2023/01/13 10:48:43;;;;;;;;;6.20;2.00;;;;;10.79;62.57;101009.75;5016057;28;45802;-62
2023/01/13 10:51:21;;;;;;;;;3.00;1.00;;;;;10.78;63.38;100994.31;5053549;28;45581;-62
2023/01/13 10:54:01;;;;;;;;;1.00;1.00;;;;;10.75;62.70;101008.44;5052985;28;45726;-62
2023/01/13 10:56:31;;;;;;;;;2.40;0.80;;;;;10.85;63.45;101009.75;5050383;28;45793;-62
2023/01/13 10:59:08;;;;;;;;;2.60;1.80;;;;;11.01;63.22;101021.41;5035185;28;45399;-62
2023/01/13 11:01:33;;;;;;;;;0.40;0.40;;;;;11.12;63.32;101025.44;5050639;28;45776;-62
2023/01/13 11:03:59;;;;;;;;;2.50;0.50;;;;;11.29;63.20;101031.38;5053777;28;46496;-62
2023/01/13 11:06:26;;;;;;;;;3.75;2.00;;;;;11.37;63.06;101039.41;5054825;28;45403;-63
2023/01/13 11:08:54;;;;;;;;;0.60;0.40;;;;;11.41;63.35;101044.50;5054989;28;45694;-62
2023/01/13 11:11:41;;;;;;;;;3.40;1.60;;;;;10.74;63.27;100960.09;5053633;28;45427;-63
2023/01/13 11:14:39;;;;;;;;;1.00;1.00;;;;;11.23;63.22;101046.81;5055453;28;45651;-63
2023/01/13 11:17:15;;;;;;;;;1.60;0.80;;;;;11.14;63.55;101026.06;5052091;28;45255;-64
2023/01/13 11:19:48;;;;;;;;;1.40;1.40;;;;;11.38;63.30;101046.59;5085888;27;45460;-63
2023/01/13 11:22:27;;;;;;;;;1.00;1.00;;;;;11.36;62.98;101028.63;5070870;28;45247;-62
2023/01/13 11:25:00;;;;;;;;;3.40;1.60;;;;;11.35;62.19;101037.94;5086983;27;46943;-63
2023/01/13 11:27:46;;;;;;;;;2.80;1.00;;;;;11.38;63.16;101056.78;5086046;27;45388;-64
2023/01/13 11:30:17;;;;;;;;;1.00;1.00;;;;;11.29;62.44;101036.88;5049494;28;46721;-64
2023/01/13 11:33:00;;;;;;;;;3.80;2.20;;;;;11.33;62.46;101051.06;5054938;28;45546;-64
2023/01/13 11:35:26;;;;;;;;;1.60;1.60;;;;;11.24;61.68;101040.25;5038021;28;45422;-63
2023/01/13 11:38:00;;;;;;;;;4.50;1.75;;;;;11.37;62.70;101053.16;5053531;28;45303;-63
2023/01/13 11:40:39;;;;;;;;;3.20;2.00;;;;;11.72;61.72;101043.88;5037662;28;45418;-63
2023/01/13 11:43:38;;;;;;;;;1.60;0.80;;;;;13.70;58.33;101046.44;5037487;28;45432;-62
2023/01/13 11:46:04;;;;;;;;;5.00;3.40;;;;;13.89;55.44;101052.00;5053274;28;45476;-64
2023/01/13 11:48:31;;;;;;;;;4.75;1.00;;;;;14.30;54.58;101061.53;5053648;28;45404;-63
2023/01/13 11:51:12;;;;;;;;;1.00;1.00;;;;;13.89;53.86;101057.50;5053374;28;45274;-62
2023/01/13 11:53:51;;;;;;;;;1.20;1.00;;;;;13.20;55.17;101041.69;5053807;28;45561;-61
2023/01/13 11:56:35;;;;;;;;;3.00;1.40;;;;;12.84;56.29;101061.41;5054383;28;45355;-63
2023/01/13 11:59:10;;;;;;;;;1.00;1.00;;;;;12.57;56.43;101030.38;5034150;27;45707;-60
2023/01/13 12:01:48;;;;;;;;;2.00;2.00;;;;;12.69;56.88;101060.81;5048220;28;45443;-61
2023/01/13 12:04:54;;;;;;;;;0.00;0.00;;;;;12.55;56.41;101066.38;5051288;28;45689;-61
2023/01/13 12:07:49;;;;;;;;;1.80;1.00;;;;;12.29;55.17;101065.41;4987396;28;45590;-60
2023/01/13 12:10:22;;;;;;;;;1.60;1.60;;;;;12.19;55.80;101062.25;5020896;28;45448;-59
2023/01/13 12:13:32;;;;;;;;;3.00;3.00;;;;;12.07;56.36;101040.91;5050182;28;45274;-62
2023/01/13 12:16:06;;;;;;;;;3.00;1.60;;;;;12.09;55.99;101046.19;5030227;28;45512;-62
2023/01/13 12:18:57;;;;;;;;;1.60;1.60;;;;;11.96;55.39;101026.94;5048830;28;45700;-61
2023/01/13 12:21:24;;;;;;;;;3.40;2.20;;;;;11.88;55.92;100995.84;5050008;28;45457;-62
2023/01/13 12:24:12;;;;;;;;;2.60;2.60;;;;;12.30;56.13;101049.72;5050549;28;45467;-61
2023/01/13 12:26:42;;;;;;;;;1.00;1.00;;;;;12.21;54.88;101057.38;5048482;28;45480;-59
2023/01/13 12:29:19;;;;;;;;;1.80;1.00;;;;;12.00;55.12;101064.78;5048304;28;46692;-62
2023/01/13 12:31:48;;;;;;;;;2.20;1.00;;;;;12.06;54.98;101072.22;5050012;28;45436;-62
2023/01/13 12:34:19;;;;;;;;;4.00;1.00;;;;;11.91;55.38;101068.84;5048887;28;45845;-65